< < Back
Terminal Aerodrome Forecast


Current Version              Previous Versions:   1  2  3  4  5  6  7  8  9  

Terminal Aerodrome Forecast

616
FTUS42 KJAX 171700 AAA
TAFGNV
TAF AMD
KGNV 171714Z 1717/1812 29005KT P6SM SKC
     FM172300 00000KT P6SM SCT250=

Latest METAR

666
SAUS70 KWBC 182300 RRJ
MTRGNV
METAR KGNV 182253Z 00000KT 10SM CLR 12/08 A3011 RMK AO2 SLP197
T01220083


USA.gov is the U.S. government's official web portal to all federal, state and local government web resources and services.